• Join FlightAware (Why Join?)
  • Login
  • US Flag 
01:33PM EDT


 

Airport Tracker/Info


-or-


 

Live Flight TrackerFlight Track Log ✈ AAL2179 ✈ 02-Sep-2013 ✈ KMIA - MMMX / MEX

Flight Track Log - Related Links

Times and Time Zones

All times are in EDT time to prevent confusion due to time zone crossing. See the AAL2179 flight status page for this flight to view local times or setup timezone preferences in your user account.

Time Position Orientation Groundspeed Altitude Reporting Facility
EDT Latitude Longitude Course Direction KTS MPH feet Rate Location/Type
08:17PM 25.7947 -80.2467 117° Southeast 177 204 1,400  Level Miami Center
08:18PM 25.7667 -80.1858 117° Southeast 235 270 2,800 1,560 Climbing Miami Center
08:19PM 25.7128 -80.1753 170° South 273 314 4,500 1,920 Climbing Miami Center
08:20PM 25.6472 -80.2033 201° Southwest 278 320 6,600 2,220 Climbing Miami Center
08:21PM 25.5756 -80.2383 204° Southwest 283 326 9,100 2,100 Climbing Miami Center
08:22PM 25.4972 -80.2753 203° Southwest 289 333 10,900 1,380 Climbing Miami Center
08:23PM 25.4044 -80.3208 204° Southwest 327 376 11,900 1,560 Climbing Miami Center
08:24PM 25.3394 -80.4156 233° Southwest 369 425 14,100 2,160 Climbing Miami Center
08:25PM 25.2803 -80.5286 240° Southwest 391 450 16,300 2,100 Climbing Miami Center
08:26PM 25.2250 -80.6442 242° Southwest 408 470 18,300 1,920 Climbing Miami Center
08:27PM 25.1656 -80.7617 241° Southwest 428 493 20,200 1,800 Climbing Miami Center
08:28PM 25.1039 -80.8858 241° Southwest 447 514 21,900 1,620 Climbing Miami Center
08:29PM 25.0419 -81.0075 241° Southwest 454 522 23,500 1,380 Climbing Miami Center
08:30PM 24.9800 -81.1339 242° Southwest 466 536 24,700 1,140 Climbing Miami Center
08:31PM 24.9133 -81.2644 241° Southwest 478 550 25,800 1,440 Climbing Miami Center
08:32PM 24.8489 -81.3947 241° Southwest 484 557 27,600 1,740 Climbing Miami Center
08:33PM 24.7844 -81.5228 241° Southwest 484 557 29,300 1,500 Climbing Miami Center
08:34PM 24.7261 -81.6464 243° Southwest 473 544 30,700 1,440 Climbing Miami Center
08:35PM 24.6633 -81.7786 242° Southwest 473 544 32,200 1,440 Climbing Miami Center
08:36PM 24.5906 -81.8969 236° Southwest 483 556 33,600 1,320 Climbing Miami Center
08:37PM 24.5317 -82.0244 243° Southwest 471 542 34,900 1,200 Climbing Miami Center
08:38PM 24.4669 -82.1450 239° Southwest 471 542 36,000 540 Climbing Miami Center
08:39PM 24.4042 -82.2656 240° Southwest 466 536 36,000 -60 Level Miami Center
08:40PM 24.3433 -82.3906 242° Southwest 466 536 35,900 -60 Descending Miami Center
08:41PM 24.2781 -82.5128 240° Southwest 466 536 35,900  Level Miami Center
08:42PM 24.2172 -82.6331 241° Southwest 466 536 36,000  Climbing Miami Center
08:43PM 24.1561 -82.7531 241° Southwest 461 531 36,000 -60 Level Miami Center
08:44PM 24.0950 -82.8728 241° Southwest 461 531 35,900  Descending Miami Center
08:45PM 24.0294 -82.9947 240° Southwest 461 531 36,000  Climbing Miami Center
08:46PM 23.9722 -83.1169 243° Southwest 461 531 36,000  Level Miami Center
08:49PM 23.8509 -83.3799 243° Southwest  Level FlightAware Approximate
08:56PM 23.4938 -84.1574 244° Southwest  Level FlightAware Approximate
08:57PM 23.4437 -84.2688 244° Southwest  Level FlightAware Approximate
08:58PM 23.3935 -84.3801 244° Southwest  Level FlightAware Approximate
08:59PM 23.3432 -84.4913 244° Southwest  Level FlightAware Approximate
09:00PM 23.2928 -84.6024 244° Southwest  Level FlightAware Approximate
09:01PM 23.2424 -84.7134 244° Southwest  Level FlightAware Approximate
09:02PM 23.1908 -84.8237 243° Southwest  Level FlightAware Approximate
09:03PM 23.1388 -84.9338 243° Southwest  Level FlightAware Approximate
09:04PM 23.0867 -85.0439 243° Southwest  Level FlightAware Approximate
09:05PM 23.0346 -85.1538 243° Southwest  Level FlightAware Approximate
09:06PM 22.9824 -85.2636 243° Southwest  Level FlightAware Approximate
09:07PM 22.9300 -85.3733 242° Southwest  Level FlightAware Approximate
09:08PM 22.8758 -85.4819 242° Southwest  Level FlightAware Approximate
09:09PM 22.8230 -85.5913 245° Southwest  Level FlightAware Approximate
09:10PM 22.7756 -85.7035 245° Southwest  Level FlightAware Approximate
09:11PM 22.7282 -85.8157 245° Southwest  Level FlightAware Approximate
09:12PM 22.6807 -85.9277 245° Southwest  Level FlightAware Approximate
09:13PM 22.6308 -86.0385 242° Southwest  Level FlightAware Approximate
09:14PM 22.5766 -86.1469 242° Southwest  Level FlightAware Approximate
09:15PM 22.5224 -86.2552 242° Southwest  Level FlightAware Approximate
09:16PM 22.4683 -86.3636 242° Southwest  Level FlightAware Approximate
09:17PM 22.4141 -86.4718 242° Southwest  Level FlightAware Approximate
09:18PM 22.3772 -86.5860 263° West  Level FlightAware Approximate
09:19PM 22.3628 -86.7081 263° West  Level FlightAware Approximate
09:20PM 22.3484 -86.8301 263° West  Level FlightAware Approximate
09:21PM 22.3339 -86.9522 263° West  Level FlightAware Approximate
09:22PM 22.3192 -87.0742 263° West  Level FlightAware Approximate
09:23PM 22.3045 -87.1961 263° West  Level FlightAware Approximate
09:24PM 22.2880 -87.3178 261° West  Level FlightAware Approximate
09:25PM 22.2708 -87.4394 261° West  Level FlightAware Approximate
09:26PM 22.2534 -87.5609 261° West  Level FlightAware Approximate
09:27PM 22.2359 -87.6824 261° West  Level FlightAware Approximate
09:28PM 22.2184 -87.8038 261° West  Level FlightAware Approximate
09:29PM 22.2007 -87.9252 261° West  Level FlightAware Approximate
09:30PM 22.1830 -88.0466 261° West  Level FlightAware Approximate
09:31PM 22.1652 -88.1680 261° West  Level FlightAware Approximate
09:32PM 22.1473 -88.2893 261° West  Level FlightAware Approximate
09:33PM 22.1294 -88.4107 261° West  Level FlightAware Approximate
09:34PM 22.1121 -88.5320 261° West  Level FlightAware Approximate
09:35PM 22.0946 -88.6534 261° West  Level FlightAware Approximate
09:36PM 22.0771 -88.7747 261° West  Level FlightAware Approximate
09:37PM 22.0594 -88.8960 261° West  Level FlightAware Approximate
09:38PM 22.0417 -89.0173 261° West  Level FlightAware Approximate
09:39PM 22.0239 -89.1385 261° West  Level FlightAware Approximate
09:40PM 22.0060 -89.2598 261° West  Level FlightAware Approximate
09:41PM 21.9885 -89.3810 261° West  Level FlightAware Approximate
09:42PM 21.9711 -89.5023 261° West  Level FlightAware Approximate
09:43PM 21.9535 -89.6235 261° West  Level FlightAware Approximate
09:44PM 21.9358 -89.7440 261° West  Level FlightAware Approximate
09:45PM 21.9180 -89.8644 261° West  Level FlightAware Approximate
09:46PM 21.9002 -89.9848 261° West  Level FlightAware Approximate
09:47PM 21.8822 -90.1052 261° West  Level FlightAware Approximate
09:48PM 21.8642 -90.2255 261° West  Level FlightAware Approximate
09:49PM 21.8460 -90.3458 261° West  Level FlightAware Approximate
09:50PM 21.8278 -90.4661 261° West  Level FlightAware Approximate
09:51PM 21.8095 -90.5863 261° West  Level FlightAware Approximate
09:52PM 21.7911 -90.7066 261° West  Level FlightAware Approximate
09:53PM 21.7727 -90.8268 261° West  Level FlightAware Approximate
09:54PM 21.7541 -90.9469 261° West  Level FlightAware Approximate
09:55PM 21.7355 -91.0670 261° West  Level FlightAware Approximate
09:56PM 21.7167 -91.1871 260° West  Level FlightAware Approximate
09:57PM 21.6979 -91.3072 260° West  Level FlightAware Approximate
09:58PM 21.6790 -91.4272 260° West  Level FlightAware Approximate
09:59PM 21.6600 -91.5472 260° West  Level FlightAware Approximate
10:00PM 21.6409 -91.6672 260° West  Level FlightAware Approximate
10:01PM 21.6218 -91.7871 260° West  Level FlightAware Approximate
10:02PM 21.6025 -91.9070 260° West  Level FlightAware Approximate
10:03PM 21.5832 -92.0269 260° West  Level FlightAware Approximate
10:04PM 21.5637 -92.1468 260° West  Level FlightAware Approximate
10:05PM 21.5442 -92.2666 260° West  Level FlightAware Approximate
10:06PM 21.5236 -92.3861 259° West  Level FlightAware Approximate
10:07PM 21.5016 -92.5054 259° West  Level FlightAware Approximate
10:08PM 21.4795 -92.6246 259° West  Level FlightAware Approximate
10:09PM 21.4574 -92.7438 259° West  Level FlightAware Approximate
10:10PM 21.4367 -92.8633 260° West  Level FlightAware Approximate
10:11PM 21.4167 -92.9830 260° West  Level FlightAware Approximate
10:12PM 21.3967 -93.1025 260° West  Level FlightAware Approximate
10:13PM 21.3766 -93.2221 260° West  Level FlightAware Approximate
10:14PM 21.3564 -93.3416 260° West  Level FlightAware Approximate
10:15PM 21.3361 -93.4611 260° West  Level FlightAware Approximate
10:16PM 21.3157 -93.5806 260° West  Level FlightAware Approximate
10:17PM 21.2952 -93.7000 260° West  Level FlightAware Approximate
10:18PM 21.2747 -93.8194 260° West  Level FlightAware Approximate
10:19PM 21.2541 -93.9387 260° West  Level FlightAware Approximate
10:20PM 21.2334 -94.0580 259° West  Level FlightAware Approximate
10:21PM 21.2125 -94.1773 259° West  Level FlightAware Approximate
10:22PM 21.1917 -94.2966 259° West  Level FlightAware Approximate
10:23PM 21.1707 -94.4158 259° West  Level FlightAware Approximate
10:24PM 21.1497 -94.5350 259° West  Level FlightAware Approximate
10:25PM 21.1285 -94.6541 259° West  Level FlightAware Approximate
10:26PM 21.1073 -94.7733 259° West  Level FlightAware Approximate
10:27PM 21.0860 -94.8923 259° West  Level FlightAware Approximate
10:28PM 21.0646 -95.0114 259° West  Level FlightAware Approximate
10:29PM 21.0427 -95.1303 259° West  Level FlightAware Approximate
10:30PM 21.0207 -95.2492 259° West  Level FlightAware Approximate
10:31PM 20.9986 -95.3680 259° West  Level FlightAware Approximate
10:32PM 20.9763 -95.4868 258° West  Level FlightAware Approximate
10:33PM 20.9536 -95.6055 258° West  Level FlightAware Approximate
10:34PM 20.9308 -95.7241 258° West  Level FlightAware Approximate
10:35PM 20.9079 -95.8428 258° West  Level FlightAware Approximate
10:36PM 20.8849 -95.9613 258° West  Level FlightAware Approximate
10:37PM 20.8619 -96.0798 258° West  Level FlightAware Approximate
10:38PM 20.8388 -96.1983 258° West  Level FlightAware Approximate
10:39PM 20.8156 -96.3168 258° West  Level FlightAware Approximate
10:40PM 20.7923 -96.4352 258° West  Level FlightAware Approximate
10:41PM 20.7689 -96.5536 258° West  Level FlightAware Approximate
10:42PM 20.7454 -96.6720 258° West  Level FlightAware Approximate
10:43PM 20.7219 -96.7903 258° West  Level FlightAware Approximate
10:44PM 20.7015 -96.9078 260° West  Level FlightAware Approximate
10:45PM 20.6770 -97.0244 257° West  Level FlightAware Approximate
10:46PM 20.6521 -97.1409 257° West  Level FlightAware Approximate
10:47PM 20.6271 -97.2574 257° West  Level FlightAware Approximate
10:48PM 20.6021 -97.3738 257° West  Level FlightAware Approximate
10:49PM 20.5728 -97.4815 233° Southwest  Level FlightAware Approximate
10:50PM 20.5049 -97.5764 233° Southwest  Level FlightAware Approximate
10:51PM 20.4352 -97.6697 231° Southwest  Level FlightAware Approximate
10:52PM 20.3664 -97.7637 233° Southwest  Level FlightAware Approximate
10:53PM 20.2987 -97.8586 233° Southwest  Level FlightAware Approximate
10:54PM 20.2309 -97.9534 232° Southwest  Level FlightAware Approximate
10:55PM 20.1623 -98.0475 232° Southwest  Level FlightAware Approximate
10:56PM 20.0937 -98.1415 232° Southwest  Level FlightAware Approximate
10:57PM 20.0250 -98.2355 232° Southwest  Level FlightAware Approximate
10:58PM 19.9563 -98.3293 232° Southwest  Level FlightAware Approximate
10:59PM 19.8871 -98.4228 231° Southwest  Level FlightAware Approximate
11:00PM 19.8174 -98.5157 231° Southwest  Level FlightAware Approximate
11:01PM 19.7586 -98.6132 232° Southwest  Level FlightAware Approximate
11:02PM 19.6902 -98.7072 232° Southwest  Level FlightAware Approximate
11:03PM 19.6263 -98.7928 231° Southwest  Level FlightAware Approximate
11:04PM 19.5637 -98.8795 235° Southwest  Level FlightAware Approximate
11:05PM 19.4983 -98.9634 232° Southwest  Level FlightAware Approximate
11:06PM 19.4323 -99.0471 230° Southwest  Level FlightAware Approximate
11:07PM 19.4167 -99.0667 230° Southwest  Level FlightAware Approximate
11:08PM 19.4363 -99.0721 230° Southwest  Level Estimated
11:09PM 19.4363 -99.0721 230° Southwest  Level Estimated
11:10PM 19.4363 -99.0721 230° Southwest  Level Estimated
11:11PM 19.4363 -99.0721 230° Southwest  Level Estimated
11:12PM 19.4363 -99.0721 230° Southwest  Level Estimated
11:13PM 19.4363 -99.0721 230° Southwest  Level Estimated
11:14PM 19.4363 -99.0721 230° Southwest  Level Estimated
11:15PM 19.4363 -99.0721 230° Southwest  Level Estimated
11:16PM 19.4363 -99.0721 230° Southwest  Level Estimated
11:17PM 19.4363 -99.0721 230° Southwest  Level Estimated
11:18PM 19.4363 -99.0721 230° Southwest  Level Estimated
11:19PM 19.4363 -99.0721 230° Southwest  Level Estimated
11:20PM 19.4363 -99.0721 230° Southwest  Level Estimated
11:21PM 19.4363 -99.0721 230° Southwest  Level Estimated
11:22PM 19.4363 -99.0721 230° Southwest  Level Estimated
11:23PM 19.4363 -99.0721 230° Southwest  Level Estimated
11:24PM 19.4363 -99.0721 230° Southwest  Level Estimated
11:25PM 19.4363 -99.0721 230° Southwest  Level Estimated
11:26PM 19.4363 -99.0721 230° Southwest  Level Estimated
11:27PM 19.4363 -99.0721 230° Southwest  Level Estimated
11:28PM 19.4363 -99.0721 230° Southwest  Level Estimated
11:29PM 19.4363 -99.0721 230° Southwest  Level Estimated
11:30PM 19.4363 -99.0721 230° Southwest  Level Estimated
11:31PM 19.4363 -99.0721 230° Southwest  Level Estimated
11:32PM 19.4363 -99.0721 230° Southwest  Level Estimated
11:33PM 19.4363 -99.0721 230° Southwest  Level Estimated
11:34PM 19.4363 -99.0721 230° Southwest  Level Estimated
11:35PM 19.4363 -99.0721 230° Southwest  Level Estimated
11:36PM 19.4363 -99.0721 230° Southwest  Level Estimated
11:37PM 19.4363 -99.0721 230° Southwest  Level Estimated
11:38PM 19.4363 -99.0721 230° Southwest  Level Estimated
11:39PM 19.4363 -99.0721 230° Southwest  Level Estimated
11:40PM 19.4363 -99.0721 230° Southwest  Level Estimated